createdAt,value
2019-02-06T00:00:43.711Z,1013.4
2019-02-06T00:01:45.096Z,1013.4
2019-02-06T00:02:46.445Z,1013.4
2019-02-06T00:03:47.829Z,1013.4
2019-02-06T00:04:49.216Z,1013.4
2019-02-06T00:05:50.600Z,1013.5
2019-02-06T00:06:51.981Z,1013.4
2019-02-06T00:07:53.369Z,1013.4
2019-02-06T00:08:54.752Z,1013.4
2019-02-06T00:09:56.137Z,1013.4
2019-02-06T00:10:57.485Z,1013.4
2019-02-06T00:11:58.869Z,1013.4
2019-02-06T00:13:00.256Z,1013.4
2019-02-06T00:14:01.642Z,1013.5
2019-02-06T00:15:03.086Z,1013.4
2019-02-06T00:16:04.398Z,1013.4
2019-02-06T00:17:05.795Z,1013.5
2019-02-06T00:18:07.163Z,1013.4
2019-02-06T00:19:08.634Z,1013.4
2019-02-06T00:20:09.946Z,1013.4
2019-02-06T00:21:11.326Z,1013.4
2019-02-06T00:22:12.713Z,1013.4
2019-02-06T00:23:14.104Z,1013.3
2019-02-06T00:24:15.485Z,1013.4
2019-02-06T00:25:16.871Z,1013.4
2019-02-06T00:26:18.218Z,1013.4
2019-02-06T00:27:19.599Z,1013.4
2019-02-06T00:28:20.979Z,1013.4
2019-02-06T00:29:22.330Z,1013.4
2019-02-06T00:30:23.723Z,1013.4
2019-02-06T00:31:25.112Z,1013.4
2019-02-06T00:32:26.497Z,1013.4
2019-02-06T00:33:27.884Z,1013.3
2019-02-06T00:34:29.268Z,1013.4
2019-02-06T00:35:30.656Z,1013.3
2019-02-06T00:36:32.041Z,1013.3
2019-02-06T00:37:33.432Z,1013.3
2019-02-06T00:38:34.781Z,1013.3
2019-02-06T00:39:36.169Z,1013.3
2019-02-06T00:40:37.551Z,1013.3
2019-02-06T00:41:38.901Z,1013.3
2019-02-06T00:42:40.287Z,1013.3
2019-02-06T00:43:41.679Z,1013.3
2019-02-06T00:44:43.063Z,1013.3
2019-02-06T00:45:44.457Z,1013.4
2019-02-06T00:46:45.841Z,1013.3
2019-02-06T00:47:47.189Z,1013.3
2019-02-06T00:48:48.585Z,1013.3
2019-02-06T00:49:49.963Z,1013.3
2019-02-06T00:50:51.346Z,1013.3
2019-02-06T00:51:52.731Z,1013.3
2019-02-06T00:52:54.121Z,1013.3
2019-02-06T00:53:55.504Z,1013.3
2019-02-06T00:54:56.886Z,1013.3
2019-02-06T00:55:58.275Z,1013.2
2019-02-06T00:56:59.656Z,1013.2
2019-02-06T00:58:01.009Z,1013.2
2019-02-06T00:59:02.392Z,1013.2
2019-02-06T01:00:03.779Z,1013.2
2019-02-06T01:01:05.165Z,1013.2
2019-02-06T01:02:06.548Z,1013.3
2019-02-06T01:03:07.936Z,1013.2
2019-02-06T01:04:09.320Z,1013.2
2019-02-06T01:05:10.704Z,1013.2
2019-02-06T01:06:12.101Z,1013.2
2019-02-06T01:07:13.483Z,1013.1
2019-02-06T01:08:14.870Z,1013.1
2019-02-06T01:09:16.260Z,1013.2
2019-02-06T01:10:17.645Z,1013.2
2019-02-06T01:11:19.150Z,1013.2
2019-02-06T01:12:20.585Z,1013.2
2019-02-06T01:13:21.969Z,1013.1
2019-02-06T01:14:23.352Z,1013.2
2019-02-06T01:15:24.739Z,1013.1
2019-02-06T01:16:26.127Z,1013.1
2019-02-06T01:17:27.519Z,1013.1
2019-02-06T01:18:28.905Z,1013.0
2019-02-06T01:19:30.307Z,1013.1
2019-02-06T01:20:31.698Z,1013.1
2019-02-06T01:21:33.086Z,1013.1
2019-02-06T01:22:34.476Z,1013.1
2019-02-06T01:23:35.861Z,1013.1
2019-02-06T01:24:37.209Z,1013.0
2019-02-06T01:25:38.591Z,1013.0
2019-02-06T01:26:39.981Z,1013.0
2019-02-06T01:27:41.363Z,1013.0
2019-02-06T01:28:42.817Z,1013.0
2019-02-06T01:29:44.202Z,1013.0
2019-02-06T01:30:45.672Z,1013.0
2019-02-06T01:31:47.055Z,1013.0
2019-02-06T01:32:48.443Z,1013.0
2019-02-06T01:33:49.795Z,1013.0
2019-02-06T01:34:51.179Z,1013.0
2019-02-06T01:35:52.561Z,1013.1
2019-02-06T01:36:53.951Z,1013.0
2019-02-06T01:37:55.341Z,1013.0
2019-02-06T01:38:56.721Z,1013.1
2019-02-06T01:39:58.109Z,1013.1
2019-02-06T01:40:59.492Z,1013.0
2019-02-06T01:42:00.874Z,1013.1
2019-02-06T01:43:02.225Z,1013.1
2019-02-06T01:44:03.609Z,1013.1
2019-02-06T01:45:04.997Z,1013.1
2019-02-06T01:46:06.378Z,1013.1
2019-02-06T01:47:07.769Z,1013.0
2019-02-06T01:48:09.152Z,1013.0
2019-02-06T01:49:10.544Z,1013.0
2019-02-06T01:50:11.937Z,1013.0
2019-02-06T01:51:13.326Z,1012.9
2019-02-06T01:52:14.669Z,1013.0
2019-02-06T01:53:16.056Z,1013.0
2019-02-06T01:54:17.446Z,1012.9
2019-02-06T01:55:18.831Z,1013.0
2019-02-06T01:56:20.214Z,1012.9
2019-02-06T01:57:21.601Z,1012.9
2019-02-06T01:58:22.986Z,1012.9
2019-02-06T01:59:24.373Z,1012.8
2019-02-06T02:00:25.763Z,1012.8
2019-02-06T02:01:27.117Z,1012.7
2019-02-06T02:02:28.499Z,1012.7
2019-02-06T02:03:29.993Z,1012.7
2019-02-06T02:04:31.393Z,1012.8
2019-02-06T02:05:32.762Z,1012.8
2019-02-06T02:06:34.151Z,1012.8
2019-02-06T02:07:35.534Z,1012.8
2019-02-06T02:08:36.923Z,1012.8
2019-02-06T02:09:38.306Z,1012.8
2019-02-06T02:10:39.650Z,1012.8
2019-02-06T02:11:41.037Z,1012.8
2019-02-06T02:12:42.424Z,1012.8
2019-02-06T02:13:43.810Z,1012.8
2019-02-06T02:14:45.306Z,1012.7
2019-02-06T02:15:46.543Z,1012.7
2019-02-06T02:16:47.928Z,1012.8
2019-02-06T02:17:49.316Z,1012.7
2019-02-06T02:18:50.702Z,1012.7
2019-02-06T02:19:52.052Z,1012.7
2019-02-06T02:20:53.437Z,1012.7
2019-02-06T02:21:54.816Z,1012.6
2019-02-06T02:22:56.200Z,1012.6
2019-02-06T02:23:57.589Z,1012.6
2019-02-06T02:24:58.973Z,1012.6
2019-02-06T02:26:00.359Z,1012.6
2019-02-06T02:27:01.739Z,1012.5
2019-02-06T02:28:03.133Z,1012.6
2019-02-06T02:29:04.479Z,1012.6
2019-02-06T02:30:05.864Z,1012.6
2019-02-06T02:31:07.247Z,1012.5
2019-02-06T02:32:08.639Z,1012.5
2019-02-06T02:33:10.028Z,1012.5
2019-02-06T02:34:11.416Z,1012.6
2019-02-06T02:35:12.802Z,1012.6
2019-02-06T02:36:16.333Z,1012.5
2019-02-06T02:37:15.538Z,1012.5
2019-02-06T02:38:16.876Z,1012.5
2019-02-06T02:39:18.270Z,1012.4
2019-02-06T02:40:19.655Z,1012.3
2019-02-06T02:41:21.044Z,1012.3
2019-02-06T02:42:22.432Z,1012.4
2019-02-06T02:43:23.811Z,1012.3
2019-02-06T02:44:25.221Z,1012.3
2019-02-06T02:45:26.575Z,1012.2
2019-02-06T02:46:27.959Z,1012.2
2019-02-06T02:47:29.308Z,1012.2
2019-02-06T02:48:30.698Z,1012.2
2019-02-06T02:49:32.089Z,1012.2
2019-02-06T02:50:33.476Z,1012.2
2019-02-06T02:51:34.857Z,1012.2
2019-02-06T02:52:36.242Z,1012.2
2019-02-06T02:53:37.625Z,1012.1
2019-02-06T02:54:39.014Z,1012.1
2019-02-06T02:55:40.462Z,1012.1
2019-02-06T02:56:41.823Z,1012.1
2019-02-06T02:57:43.205Z,1012.1
2019-02-06T02:58:44.587Z,1012.0
2019-02-06T02:59:45.972Z,1012.0
2019-02-06T03:00:47.370Z,1012.0
2019-02-06T03:01:48.758Z,1012.0
2019-02-06T03:02:50.139Z,1012.0
2019-02-06T03:03:51.527Z,1012.0
2019-02-06T03:04:52.915Z,1012.0
2019-02-06T03:05:54.265Z,1012.0
2019-02-06T03:06:55.648Z,1011.9
2019-02-06T03:07:57.030Z,1011.9
2019-02-06T03:08:58.412Z,1012.0
2019-02-06T03:09:59.804Z,1011.9
2019-02-06T03:11:01.181Z,1011.9
2019-02-06T03:12:02.565Z,1011.9
2019-02-06T03:13:04.014Z,1011.9
2019-02-06T03:14:05.407Z,1011.8
2019-02-06T03:15:06.809Z,1011.9
2019-02-06T03:16:08.220Z,1011.9
2019-02-06T03:17:09.675Z,1011.8
2019-02-06T03:18:11.052Z,1011.8
2019-02-06T03:19:12.508Z,1011.8
2019-02-06T03:20:13.792Z,1011.8
2019-02-06T03:21:15.181Z,1011.7
2019-02-06T03:22:16.582Z,1011.7
2019-02-06T03:23:17.949Z,1011.7
2019-02-06T03:24:19.305Z,1011.7
2019-02-06T03:25:20.693Z,1011.7
2019-02-06T03:26:22.084Z,1011.7
2019-02-06T03:27:23.488Z,1011.7
2019-02-06T03:28:24.875Z,1011.7
2019-02-06T03:29:26.254Z,1011.7
2019-02-06T03:30:27.640Z,1011.6
2019-02-06T03:31:29.217Z,1011.6
2019-02-06T03:32:30.380Z,1011.6
2019-02-06T03:33:31.772Z,1011.6
2019-02-06T03:34:33.114Z,1011.6
2019-02-06T03:35:34.507Z,1011.6
2019-02-06T03:36:40.401Z,1011.6
2019-02-06T03:37:37.379Z,1011.6
2019-02-06T03:38:38.765Z,1011.7
2019-02-06T03:39:40.152Z,1011.6
2019-02-06T03:40:41.537Z,1011.6
2019-02-06T03:41:42.942Z,1011.6
2019-02-06T03:42:44.288Z,1011.6
2019-02-06T03:43:45.672Z,1011.6
2019-02-06T03:44:47.056Z,1011.6
2019-02-06T03:45:48.443Z,1011.5
2019-02-06T03:46:49.903Z,1011.5
2019-02-06T03:47:51.321Z,1011.5
2019-02-06T03:48:52.706Z,1011.5
2019-02-06T03:49:54.095Z,1011.5
2019-02-06T03:50:55.480Z,1011.5
2019-02-06T03:51:57.002Z,1011.5
2019-02-06T03:52:58.209Z,1011.5
2019-02-06T03:53:59.611Z,1011.5
2019-02-06T03:55:01.123Z,1011.5
2019-02-06T03:56:02.335Z,1011.5
2019-02-06T03:57:03.726Z,1011.5
2019-02-06T03:58:05.115Z,1011.5
2019-02-06T03:59:06.519Z,1011.5
2019-02-06T04:00:07.910Z,1011.5
2019-02-06T04:01:11.313Z,1011.5
2019-02-06T04:02:10.609Z,1011.5
2019-02-06T04:03:11.998Z,1011.5
2019-02-06T04:04:13.377Z,1011.5
2019-02-06T04:05:14.760Z,1011.5
2019-02-06T04:06:16.161Z,1011.5
2019-02-06T04:07:17.577Z,1011.5
2019-02-06T04:08:18.936Z,1011.5
2019-02-06T04:09:20.336Z,1011.5
2019-02-06T04:10:21.687Z,1011.5
2019-02-06T04:11:23.077Z,1011.4
2019-02-06T04:12:24.454Z,1011.5
2019-02-06T04:13:25.845Z,1011.4
2019-02-06T04:14:27.231Z,1011.4
2019-02-06T04:15:28.614Z,1011.4
2019-02-06T04:16:29.997Z,1011.4
2019-02-06T04:17:31.382Z,1011.4
2019-02-06T04:18:32.775Z,1011.4
2019-02-06T04:19:34.262Z,1011.4
2019-02-06T04:20:35.637Z,1011.4
2019-02-06T04:21:37.020Z,1011.4
2019-02-06T04:22:38.438Z,1011.4
2019-02-06T04:23:39.821Z,1011.4
2019-02-06T04:24:41.197Z,1011.3
2019-02-06T04:25:42.586Z,1011.4
2019-02-06T04:26:43.982Z,1011.3
2019-02-06T04:27:45.369Z,1011.2
2019-02-06T04:28:46.750Z,1011.2
2019-02-06T04:29:48.095Z,1011.3
2019-02-06T04:30:49.480Z,1011.3
2019-02-06T04:31:50.859Z,1011.3
2019-02-06T04:32:52.410Z,1011.4
2019-02-06T04:33:53.647Z,1011.4
2019-02-06T04:34:55.031Z,1011.3
2019-02-06T04:35:56.373Z,1011.4
2019-02-06T04:37:06.162Z,1011.4
2019-02-06T04:37:59.112Z,1011.3
2019-02-06T04:39:00.461Z,1011.2
2019-02-06T04:40:01.940Z,1011.2
2019-02-06T04:41:03.352Z,1011.3
2019-02-06T04:42:04.711Z,1011.3
2019-02-06T04:43:06.109Z,1011.3
2019-02-06T04:44:07.486Z,1011.3
2019-02-06T04:45:08.868Z,1011.3
2019-02-06T04:46:10.250Z,1011.2
2019-02-06T04:47:11.629Z,1011.2
2019-02-06T04:48:12.988Z,1011.2
2019-02-06T04:49:14.378Z,1011.2
2019-02-06T04:50:15.766Z,1011.1
2019-02-06T04:51:17.152Z,1011.1
2019-02-06T04:52:18.539Z,1011.2
2019-02-06T04:53:19.931Z,1011.2
2019-02-06T04:54:21.318Z,1011.1
2019-02-06T04:55:22.695Z,1011.0
2019-02-06T04:56:24.090Z,1011.0
2019-02-06T04:57:25.474Z,1011.0
2019-02-06T04:58:26.861Z,1011.0
2019-02-06T04:59:28.244Z,1011.0
2019-02-06T05:00:29.631Z,1010.9
2019-02-06T05:01:31.022Z,1010.9
2019-02-06T05:02:32.412Z,1011.0
2019-02-06T05:03:33.792Z,1011.0
2019-02-06T05:04:35.180Z,1011.0
2019-02-06T05:05:36.522Z,1011.0
2019-02-06T05:06:37.909Z,1011.0
2019-02-06T05:07:39.293Z,1011.0
2019-02-06T05:08:40.674Z,1010.9
2019-02-06T05:09:42.058Z,1010.9
2019-02-06T05:10:43.446Z,1010.8
2019-02-06T05:11:44.829Z,1010.9
2019-02-06T05:12:46.219Z,1010.9
2019-02-06T05:13:47.604Z,1010.8
2019-02-06T05:14:48.953Z,1010.8
2019-02-06T05:15:50.339Z,1010.9
2019-02-06T05:16:51.692Z,1010.8
2019-02-06T05:17:55.838Z,1010.8
2019-02-06T05:18:54.427Z,1010.8
2019-02-06T05:19:55.813Z,1010.8
2019-02-06T05:20:57.205Z,1010.7
2019-02-06T05:21:58.574Z,1010.7
2019-02-06T05:22:59.957Z,1010.7
2019-02-06T05:24:01.334Z,1010.7
2019-02-06T05:25:02.725Z,1010.6
2019-02-06T05:26:04.113Z,1010.7
2019-02-06T05:27:05.515Z,1010.6
2019-02-06T05:28:06.890Z,1010.6
2019-02-06T05:29:08.266Z,1010.7
2019-02-06T05:30:09.731Z,1010.7
2019-02-06T05:31:11.114Z,1010.6
2019-02-06T05:32:12.529Z,1010.7
2019-02-06T05:33:13.882Z,1010.6
2019-02-06T05:34:15.264Z,1010.7
2019-02-06T05:35:16.714Z,1010.7
2019-02-06T05:36:18.055Z,1010.7
2019-02-06T05:37:31.296Z,1010.6
2019-02-06T05:38:20.786Z,1010.6
2019-02-06T05:39:22.210Z,1010.6
2019-02-06T05:40:23.557Z,1010.6
2019-02-06T05:41:24.951Z,1010.6
2019-02-06T05:42:26.305Z,1010.5
2019-02-06T05:43:27.685Z,1010.6
2019-02-06T05:44:29.067Z,1010.6
2019-02-06T05:45:30.534Z,1010.6
2019-02-06T05:46:31.929Z,1010.6
2019-02-06T05:47:33.318Z,1010.6
2019-02-06T05:48:34.707Z,1010.6
2019-02-06T05:49:36.094Z,1010.6
2019-02-06T05:50:37.483Z,1010.6
2019-02-06T05:51:38.834Z,1010.7
2019-02-06T05:52:40.219Z,1010.6
2019-02-06T05:53:41.601Z,1010.6
2019-02-06T05:54:43.076Z,1010.6
2019-02-06T05:55:44.338Z,1010.6
2019-02-06T05:56:45.723Z,1010.5
2019-02-06T05:57:47.110Z,1010.6
2019-02-06T05:58:48.454Z,1010.5
2019-02-06T05:59:49.839Z,1010.6
2019-02-06T06:00:51.222Z,1010.6
2019-02-06T06:01:52.612Z,1010.6
2019-02-06T06:02:54.003Z,1010.6
2019-02-06T06:03:55.379Z,1010.6
2019-02-06T06:04:56.758Z,1010.5
2019-02-06T06:05:58.140Z,1010.6
2019-02-06T06:06:59.526Z,1010.6
2019-02-06T06:08:00.910Z,1010.6
2019-02-06T06:09:02.293Z,1010.5
2019-02-06T06:10:03.682Z,1010.5
2019-02-06T06:11:05.064Z,1010.5
2019-02-06T06:12:06.445Z,1010.5
2019-02-06T06:13:07.821Z,1010.5
2019-02-06T06:14:09.212Z,1010.4
2019-02-06T06:15:10.600Z,1010.6
2019-02-06T06:16:11.986Z,1010.5
2019-02-06T06:17:13.369Z,1010.4
2019-02-06T06:18:14.718Z,1010.4
2019-02-06T06:19:16.113Z,1010.5
2019-02-06T06:20:17.538Z,1010.4
2019-02-06T06:21:18.827Z,1010.4
2019-02-06T06:22:20.217Z,1010.4
2019-02-06T06:23:21.605Z,1010.4
2019-02-06T06:24:23.025Z,1010.4
2019-02-06T06:25:24.429Z,1010.3
2019-02-06T06:26:25.812Z,1010.3
2019-02-06T06:27:27.154Z,1010.3
2019-02-06T06:28:28.537Z,1010.3
2019-02-06T06:29:29.925Z,1010.3
2019-02-06T06:30:31.310Z,1010.3
2019-02-06T06:31:32.689Z,1010.3
2019-02-06T06:32:34.071Z,1010.3
2019-02-06T06:33:35.454Z,1010.4
2019-02-06T06:34:36.834Z,1010.3
2019-02-06T06:35:38.217Z,1010.4
2019-02-06T06:36:39.574Z,1010.3
2019-02-06T06:37:41.579Z,1010.2
2019-02-06T06:38:42.305Z,1010.3
2019-02-06T06:39:43.689Z,1010.3
2019-02-06T06:40:45.080Z,1010.3
2019-02-06T06:41:46.463Z,1010.2
2019-02-06T06:42:47.855Z,1010.2
2019-02-06T06:43:49.240Z,1010.2
2019-02-06T06:44:50.627Z,1010.2
2019-02-06T06:45:51.975Z,1010.1
2019-02-06T06:46:53.377Z,1010.1
2019-02-06T06:47:54.759Z,1010.1
2019-02-06T06:48:56.143Z,1010.0
2019-02-06T06:49:57.533Z,1010.2
2019-02-06T06:50:58.921Z,1010.1
2019-02-06T06:52:00.306Z,1010.1
2019-02-06T06:53:01.689Z,1010.2
2019-02-06T06:54:03.072Z,1010.1
2019-02-06T06:55:04.424Z,1010.1
2019-02-06T06:56:05.810Z,1010.2
2019-02-06T06:57:07.191Z,1010.1
2019-02-06T06:58:08.577Z,1010.1
2019-02-06T06:59:09.960Z,1010.2
2019-02-06T07:00:11.349Z,1010.1
2019-02-06T07:01:12.854Z,1010.1
2019-02-06T07:02:14.246Z,1010.1
2019-02-06T07:03:15.630Z,1010.2
2019-02-06T07:04:16.980Z,1010.1
2019-02-06T07:05:18.368Z,1010.1
2019-02-06T07:06:19.760Z,1010.1
2019-02-06T07:07:21.149Z,1010.2
2019-02-06T07:08:22.543Z,1010.2
2019-02-06T07:09:23.931Z,1010.2
2019-02-06T07:10:25.319Z,1010.2
2019-02-06T07:11:26.700Z,1010.2
2019-02-06T07:12:28.091Z,1010.2
2019-02-06T07:13:29.445Z,1010.2
2019-02-06T07:14:30.833Z,1010.2
2019-02-06T07:15:32.220Z,1010.2
2019-02-06T07:16:33.658Z,1010.1
2019-02-06T07:17:35.056Z,1010.1
2019-02-06T07:18:36.445Z,1010.1
2019-02-06T07:19:37.830Z,1010.1
2019-02-06T07:20:39.216Z,1010.0
2019-02-06T07:21:40.613Z,1010.1
2019-02-06T07:22:41.949Z,1010.1
2019-02-06T07:23:43.337Z,1010.1
2019-02-06T07:24:44.725Z,1010.1
2019-02-06T07:25:46.128Z,1010.1
2019-02-06T07:26:47.510Z,1010.1
2019-02-06T07:27:49.017Z,1010.1
2019-02-06T07:28:50.254Z,1010.1
2019-02-06T07:29:51.640Z,1010.1
2019-02-06T07:30:53.033Z,1010.1
2019-02-06T07:31:54.383Z,1010.1
2019-02-06T07:32:55.767Z,1010.0
2019-02-06T07:33:57.157Z,1010.0
2019-02-06T07:34:58.546Z,1010.1
2019-02-06T07:35:59.932Z,1010.1
2019-02-06T07:37:01.322Z,1010.1
2019-02-06T07:38:02.724Z,1010.1
2019-02-06T07:39:04.106Z,1010.1
2019-02-06T07:40:05.497Z,1010.2
2019-02-06T07:41:06.847Z,1010.1
2019-02-06T07:42:08.237Z,1010.2
2019-02-06T07:43:09.630Z,1010.1
2019-02-06T07:44:13.370Z,1010.1
2019-02-06T07:45:12.399Z,1010.2
2019-02-06T07:46:13.756Z,1010.2
2019-02-06T07:47:15.145Z,1010.1
2019-02-06T07:48:16.533Z,1010.2
2019-02-06T07:49:17.924Z,1010.2
2019-02-06T07:50:19.273Z,1010.1
2019-02-06T07:51:20.664Z,1010.2
2019-02-06T07:52:22.054Z,1010.1
2019-02-06T07:53:23.439Z,1010.1
2019-02-06T07:54:24.834Z,1010.1
2019-02-06T07:55:26.224Z,1010.1
2019-02-06T07:56:27.611Z,1010.1
2019-02-06T07:57:29.003Z,1010.2
2019-02-06T07:58:30.389Z,1010.1
2019-02-06T07:59:31.740Z,1010.1
2019-02-06T08:00:33.133Z,1010.1
2019-02-06T08:01:34.517Z,1010.1
2019-02-06T08:02:35.908Z,1010.0
2019-02-06T08:03:37.325Z,1010.1
2019-02-06T08:04:41.394Z,1010.1
2019-02-06T08:05:40.047Z,1010.1
2019-02-06T08:06:41.439Z,1010.1
2019-02-06T08:07:42.828Z,1010.1
2019-02-06T08:08:44.281Z,1010.1
2019-02-06T08:09:45.684Z,1010.1
2019-02-06T08:10:47.070Z,1010.1
2019-02-06T08:11:48.461Z,1010.1
2019-02-06T08:12:49.844Z,1010.1
2019-02-06T08:13:51.239Z,1010.1
2019-02-06T08:14:52.629Z,1010.1
2019-02-06T08:15:54.022Z,1010.2
2019-02-06T08:16:55.413Z,1010.1
2019-02-06T08:17:56.766Z,1010.1
2019-02-06T08:18:58.163Z,1010.1
2019-02-06T08:19:59.549Z,1010.1
2019-02-06T08:21:00.937Z,1010.2
2019-02-06T08:22:02.321Z,1010.1
2019-02-06T08:23:03.708Z,1009.9
2019-02-06T08:24:05.104Z,1010.0
2019-02-06T08:25:06.493Z,1010.0
2019-02-06T08:26:07.882Z,1010.1
2019-02-06T08:27:09.244Z,1010.0
2019-02-06T08:28:10.634Z,1010.2
2019-02-06T08:29:12.022Z,1010.1
2019-02-06T08:30:13.409Z,1010.1
2019-02-06T08:31:14.805Z,1010.1
2019-02-06T08:32:16.200Z,1010.1
2019-02-06T08:33:17.597Z,1010.0
2019-02-06T08:34:18.989Z,1010.0
2019-02-06T08:35:20.374Z,1010.0
2019-02-06T08:36:21.725Z,1010.1
2019-02-06T08:37:23.117Z,1010.1
2019-02-06T08:38:24.504Z,1010.1
2019-02-06T08:39:25.896Z,1010.0
2019-02-06T08:40:27.289Z,1010.0
2019-02-06T08:41:28.682Z,1010.0
2019-02-06T08:42:30.082Z,1010.0
2019-02-06T08:43:31.466Z,1010.1
2019-02-06T08:44:32.853Z,1010.0
2019-02-06T08:45:34.203Z,1010.1
2019-02-06T08:46:35.595Z,1010.1
2019-02-06T08:47:37.015Z,1010.1
2019-02-06T08:48:38.396Z,1010.1
2019-02-06T08:49:39.782Z,1010.1
2019-02-06T08:50:41.172Z,1010.1
2019-02-06T08:51:42.563Z,1010.1
2019-02-06T08:52:43.950Z,1010.1
2019-02-06T08:53:45.344Z,1010.0
2019-02-06T08:54:46.696Z,1010.1
2019-02-06T08:55:48.080Z,1010.2
2019-02-06T08:56:49.470Z,1010.2
2019-02-06T08:57:50.861Z,1010.1
2019-02-06T08:58:52.253Z,1010.1
2019-02-06T08:59:53.762Z,1010.1
2019-02-06T09:00:55.061Z,1010.1
2019-02-06T09:01:56.487Z,1010.1
2019-02-06T09:02:57.873Z,1010.2
2019-02-06T09:03:59.223Z,1010.1
2019-02-06T09:05:00.627Z,1010.2
2019-02-06T09:06:02.019Z,1010.1
2019-02-06T09:07:03.612Z,1010.2
2019-02-06T09:08:05.005Z,1010.1
2019-02-06T09:09:06.395Z,1010.2
2019-02-06T09:10:07.784Z,1010.3
2019-02-06T09:11:09.176Z,1010.2
2019-02-06T09:12:10.560Z,1010.3
2019-02-06T09:13:11.926Z,1010.4
2019-02-06T09:14:13.319Z,1010.3
2019-02-06T09:15:14.714Z,1010.3
2019-02-06T09:16:16.109Z,1010.4
2019-02-06T09:17:17.503Z,1010.4
2019-02-06T09:18:18.894Z,1010.4
2019-02-06T09:19:20.295Z,1010.4
2019-02-06T09:20:21.688Z,1010.4
2019-02-06T09:21:23.084Z,1010.4
2019-02-06T09:22:24.433Z,1010.4
2019-02-06T09:23:25.822Z,1010.4
2019-02-06T09:24:27.213Z,1010.5
2019-02-06T09:25:28.604Z,1010.4
2019-02-06T09:26:32.977Z,1010.5
2019-02-06T09:27:31.369Z,1010.4
2019-02-06T09:28:32.688Z,1010.4
2019-02-06T09:29:34.080Z,1010.5
2019-02-06T09:30:35.473Z,1010.5
2019-02-06T09:31:36.907Z,1010.5
2019-02-06T09:32:38.192Z,1010.5
2019-02-06T09:33:39.582Z,1010.5
2019-02-06T09:34:40.977Z,1010.5
2019-02-06T09:35:42.373Z,1010.5
2019-02-06T09:36:43.765Z,1010.5
2019-02-06T09:37:45.163Z,1010.6
2019-02-06T09:38:46.557Z,1010.6
2019-02-06T09:39:47.950Z,1010.6
2019-02-06T09:40:49.646Z,1010.6
2019-02-06T09:41:50.664Z,1010.6
2019-02-06T09:42:52.059Z,1010.5
2019-02-06T09:43:53.452Z,1010.6
2019-02-06T09:44:54.847Z,1010.5
2019-02-06T09:45:57.066Z,1010.5
2019-02-06T09:46:57.602Z,1010.5
2019-02-06T09:47:58.995Z,1010.6
2019-02-06T09:49:00.387Z,1010.6
2019-02-06T09:50:01.743Z,1010.6
2019-02-06T09:51:03.128Z,1010.6
2019-02-06T09:52:04.520Z,1010.6
2019-02-06T09:53:05.928Z,1010.5
2019-02-06T09:54:07.344Z,1010.5
2019-02-06T09:55:08.732Z,1010.5
2019-02-06T09:56:10.126Z,1010.5
2019-02-06T09:57:11.514Z,1010.6
2019-02-06T09:58:12.915Z,1010.6
2019-02-06T09:59:14.313Z,1010.6
2019-02-06T10:00:15.705Z,1010.6
2019-02-06T10:01:17.102Z,1010.6
2019-02-06T10:02:18.491Z,1010.6
2019-02-06T10:03:19.881Z,1010.6
2019-02-06T10:04:21.275Z,1010.6
2019-02-06T10:05:22.667Z,1010.6
2019-02-06T10:06:24.060Z,1010.6
2019-02-06T10:07:25.450Z,1010.6
2019-02-06T10:08:26.805Z,1010.6
2019-02-06T10:09:28.207Z,1010.6
2019-02-06T10:10:29.604Z,1010.6
2019-02-06T10:11:30.994Z,1010.6
2019-02-06T10:12:32.388Z,1010.6
2019-02-06T10:13:33.781Z,1010.6
2019-02-06T10:14:35.171Z,1010.6
2019-02-06T10:15:36.566Z,1010.6
2019-02-06T10:16:37.960Z,1010.6
2019-02-06T10:17:39.356Z,1010.5
2019-02-06T10:18:40.749Z,1010.6
2019-02-06T10:19:42.485Z,1010.6
2019-02-06T10:20:43.500Z,1010.6
2019-02-06T10:21:44.895Z,1010.6
2019-02-06T10:22:46.290Z,1010.6
2019-02-06T10:23:47.686Z,1010.6
2019-02-06T10:24:49.077Z,1010.6
2019-02-06T10:25:53.491Z,1010.6
2019-02-06T10:26:51.789Z,1010.6
2019-02-06T10:27:53.186Z,1010.6
2019-02-06T10:28:54.602Z,1010.6
2019-02-06T10:29:55.992Z,1010.7
2019-02-06T10:30:57.380Z,1010.6
2019-02-06T10:31:58.781Z,1010.7
2019-02-06T10:33:00.175Z,1010.7
2019-02-06T10:34:01.570Z,1010.6
2019-02-06T10:35:02.968Z,1010.6
2019-02-06T10:36:04.325Z,1010.7
2019-02-06T10:37:05.713Z,1010.6
2019-02-06T10:38:07.111Z,1010.7
2019-02-06T10:39:08.500Z,1010.6
2019-02-06T10:40:09.895Z,1010.7
2019-02-06T10:41:11.290Z,1010.6
2019-02-06T10:42:12.679Z,1010.6
2019-02-06T10:43:14.069Z,1010.6
2019-02-06T10:44:15.485Z,1010.6
2019-02-06T10:45:16.916Z,1010.6
2019-02-06T10:46:18.518Z,1010.6
2019-02-06T10:47:19.671Z,1010.5
2019-02-06T10:48:21.066Z,1010.5
2019-02-06T10:49:22.462Z,1010.5
2019-02-06T10:50:23.855Z,1010.4
2019-02-06T10:51:25.253Z,1010.5
2019-02-06T10:52:26.647Z,1010.5
2019-02-06T10:53:28.040Z,1010.4
2019-02-06T10:54:29.438Z,1010.4
2019-02-06T10:55:30.832Z,1010.4
2019-02-06T10:56:32.225Z,1010.4
2019-02-06T10:57:33.617Z,1010.4
2019-02-06T10:58:35.015Z,1010.4
2019-02-06T10:59:36.424Z,1010.4
2019-02-06T11:00:37.827Z,1010.4
2019-02-06T11:01:39.221Z,1010.3
2019-02-06T11:02:40.622Z,1010.3
2019-02-06T11:03:42.078Z,1010.3
2019-02-06T11:04:43.337Z,1010.3
2019-02-06T11:05:44.735Z,1010.3
2019-02-06T11:06:46.128Z,1010.2
2019-02-06T11:07:47.520Z,1010.2
2019-02-06T11:08:48.933Z,1010.2
2019-02-06T11:09:50.331Z,1010.2
2019-02-06T11:10:51.727Z,1010.2
2019-02-06T11:11:53.124Z,1010.2
2019-02-06T11:12:54.517Z,1010.2
2019-02-06T11:13:55.917Z,1010.2
2019-02-06T11:14:57.317Z,1010.1
2019-02-06T11:15:58.713Z,1010.1
2019-02-06T11:17:00.116Z,1010.2
2019-02-06T11:18:01.624Z,1010.1
2019-02-06T11:19:02.878Z,1010.0
2019-02-06T11:20:04.274Z,1010.0
2019-02-06T11:21:10.601Z,1010.0
2019-02-06T11:22:11.994Z,1010.0
2019-02-06T11:23:13.376Z,1010.0
2019-02-06T11:24:14.772Z,1009.9
2019-02-06T11:25:16.175Z,1010.0
2019-02-06T11:26:17.567Z,1010.0
2019-02-06T11:27:19.061Z,1009.9
2019-02-06T11:28:20.472Z,1009.9
2019-02-06T11:29:21.869Z,1010.0
2019-02-06T11:30:23.268Z,1010.0
2019-02-06T11:31:24.625Z,1009.9
2019-02-06T11:32:26.062Z,1009.8
2019-02-06T11:33:27.519Z,1009.9
2019-02-06T11:34:28.967Z,1009.9
2019-02-06T11:35:30.413Z,1009.9
2019-02-06T11:36:31.816Z,1009.8
2019-02-06T11:37:33.212Z,1009.8
2019-02-06T11:38:34.616Z,1009.8
2019-02-06T11:39:36.021Z,1009.8
2019-02-06T11:40:37.381Z,1009.8
2019-02-06T11:41:38.777Z,1009.8
2019-02-06T11:42:40.185Z,1009.7
2019-02-06T11:43:41.587Z,1009.7
2019-02-06T11:44:42.983Z,1009.6
2019-02-06T11:45:44.385Z,1009.6
2019-02-06T11:46:45.786Z,1009.7
2019-02-06T11:47:47.185Z,1009.6
2019-02-06T11:48:48.580Z,1009.6
2019-02-06T11:49:49.981Z,1009.6
2019-02-06T11:50:51.388Z,1009.6
2019-02-06T11:51:52.792Z,1009.5
2019-02-06T11:52:54.193Z,1009.5
2019-02-06T11:53:55.589Z,1009.5
2019-02-06T11:54:56.988Z,1009.5
2019-02-06T11:55:58.392Z,1009.5
2019-02-06T11:56:59.787Z,1009.5
2019-02-06T11:58:01.194Z,1009.4
2019-02-06T11:59:02.590Z,1009.4
2019-02-06T12:00:03.955Z,1009.4
2019-02-06T12:01:05.361Z,1009.4
2019-02-06T12:02:06.759Z,1009.4
2019-02-06T12:03:08.165Z,1009.4
2019-02-06T12:04:09.568Z,1009.4
2019-02-06T12:05:10.972Z,1009.4
2019-02-06T12:06:12.376Z,1009.4
2019-02-06T12:07:13.776Z,1009.4
2019-02-06T12:08:15.174Z,1009.5
2019-02-06T12:09:16.554Z,1009.4
2019-02-06T12:10:17.936Z,1009.3
2019-02-06T12:11:19.337Z,1009.3
2019-02-06T12:12:20.745Z,1009.3
2019-02-06T12:13:22.145Z,1009.3
2019-02-06T12:14:23.540Z,1009.3
2019-02-06T12:15:24.953Z,1009.3
2019-02-06T12:16:26.522Z,1009.2
2019-02-06T12:17:27.777Z,1009.2
2019-02-06T12:18:29.219Z,1009.2
2019-02-06T12:19:30.620Z,1009.2
2019-02-06T12:20:32.022Z,1009.2
2019-02-06T12:21:33.420Z,1009.2
2019-02-06T12:22:34.819Z,1009.2
2019-02-06T12:23:36.220Z,1009.1
2019-02-06T12:24:37.617Z,1009.1
2019-02-06T12:25:39.013Z,1009.1
2019-02-06T12:26:40.371Z,1009.1
2019-02-06T12:27:41.815Z,1009.1
2019-02-06T12:28:43.210Z,1009.0
2019-02-06T12:29:44.608Z,1009.0
2019-02-06T12:30:46.006Z,1008.9
2019-02-06T12:31:47.409Z,1008.9
2019-02-06T12:32:52.281Z,1008.9
2019-02-06T12:33:50.160Z,1008.9
2019-02-06T12:34:51.581Z,1008.9
2019-02-06T12:35:52.964Z,1008.9
2019-02-06T12:36:54.379Z,1008.9
2019-02-06T12:37:55.781Z,1008.9
2019-02-06T12:38:57.247Z,1008.8
2019-02-06T12:39:58.684Z,1008.8
2019-02-06T12:41:00.081Z,1008.8
2019-02-06T12:42:01.481Z,1008.8
2019-02-06T12:43:02.882Z,1008.8
2019-02-06T12:44:04.245Z,1008.7
2019-02-06T12:45:05.641Z,1008.7
2019-02-06T12:46:07.033Z,1008.7